sensor_id;sensor_type;location;lat;lon;timestamp;P1;durP1;ratioP1;P2;durP2;ratioP2
40601;SDS011;26310;50.278;19.032;2022-11-20T00:01:44;66.80;;;29.53;;
40601;SDS011;26310;50.278;19.032;2022-11-20T00:06:47;72.83;;;31.40;;
40601;SDS011;26310;50.278;19.032;2022-11-20T00:11:50;64.03;;;32.63;;
40601;SDS011;26310;50.278;19.032;2022-11-20T00:16:53;95.23;;;44.30;;
40601;SDS011;26310;50.278;19.032;2022-11-20T00:21:56;129.37;;;51.93;;
40601;SDS011;26310;50.278;19.032;2022-11-20T00:26:58;139.60;;;56.07;;
40601;SDS011;26310;50.278;19.032;2022-11-20T05:36:07;53.57;;;27.57;;
40601;SDS011;26310;50.278;19.032;2022-11-20T05:41:12;77.07;;;33.43;;
40601;SDS011;26310;50.278;19.032;2022-11-20T05:46:19;66.10;;;33.17;;
40601;SDS011;26310;50.278;19.032;2022-11-20T05:51:29;80.07;;;36.67;;
40601;SDS011;26310;50.278;19.032;2022-11-20T05:56:31;104.97;;;38.03;;
40601;SDS011;26310;50.278;19.032;2022-11-20T06:01:34;84.13;;;37.17;;
40601;SDS011;26310;50.278;19.032;2022-11-20T06:06:37;89.43;;;42.43;;
40601;SDS011;26310;50.278;19.032;2022-11-20T06:11:40;78.60;;;36.67;;
40601;SDS011;26310;50.278;19.032;2022-11-20T06:16:43;82.63;;;35.33;;
40601;SDS011;26310;50.278;19.032;2022-11-20T06:21:47;72.67;;;34.50;;
40601;SDS011;26310;50.278;19.032;2022-11-20T06:26:51;70.53;;;33.77;;
40601;SDS011;26310;50.278;19.032;2022-11-20T06:31:53;82.37;;;34.50;;
40601;SDS011;26310;50.278;19.032;2022-11-20T06:36:56;80.10;;;35.43;;
40601;SDS011;26310;50.278;19.032;2022-11-20T06:41:59;71.33;;;32.07;;
40601;SDS011;26310;50.278;19.032;2022-11-20T06:47:02;77.33;;;33.30;;
40601;SDS011;26310;50.278;19.032;2022-11-20T06:52:05;76.90;;;34.40;;
40601;SDS011;26310;50.278;19.032;2022-11-20T06:57:07;73.93;;;32.17;;
40601;SDS011;26310;50.278;19.032;2022-11-20T07:02:10;69.50;;;31.13;;
40601;SDS011;26310;50.278;19.032;2022-11-20T07:07:13;66.03;;;33.07;;
40601;SDS011;26310;50.278;19.032;2022-11-20T07:12:16;72.87;;;33.17;;
40601;SDS011;26310;50.278;19.032;2022-11-20T07:17:19;72.53;;;30.77;;
40601;SDS011;26310;50.278;19.032;2022-11-20T07:22:22;82.43;;;37.27;;
40601;SDS011;26310;50.278;19.032;2022-11-20T07:27:24;93.37;;;37.40;;
40601;SDS011;26310;50.278;19.032;2022-11-20T07:32:27;85.67;;;37.00;;
40601;SDS011;26310;50.278;19.032;2022-11-20T07:37:30;73.33;;;34.27;;
40601;SDS011;26310;50.278;19.032;2022-11-20T07:42:35;79.97;;;36.37;;
40601;SDS011;26310;50.278;19.032;2022-11-20T07:47:38;73.27;;;35.00;;
40601;SDS011;26310;50.278;19.032;2022-11-20T07:52:41;74.33;;;34.90;;
40601;SDS011;26310;50.278;19.032;2022-11-20T07:57:44;83.90;;;36.13;;
40601;SDS011;26310;50.278;19.032;2022-11-20T08:02:47;108.53;;;45.43;;
40601;SDS011;26310;50.278;19.032;2022-11-20T08:07:49;100.67;;;42.87;;
40601;SDS011;26310;50.278;19.032;2022-11-20T08:12:52;95.23;;;39.53;;
40601;SDS011;26310;50.278;19.032;2022-11-20T08:18:16;88.03;;;37.83;;
40601;SDS011;26310;50.278;19.032;2022-11-20T08:23:37;83.30;;;36.73;;
40601;SDS011;26310;50.278;19.032;2022-11-20T08:28:40;82.97;;;36.43;;
40601;SDS011;26310;50.278;19.032;2022-11-20T08:33:43;82.30;;;38.07;;
40601;SDS011;26310;50.278;19.032;2022-11-20T08:38:50;93.80;;;39.23;;
40601;SDS011;26310;50.278;19.032;2022-11-20T08:44:01;79.17;;;37.37;;
40601;SDS011;26310;50.278;19.032;2022-11-20T08:49:05;98.33;;;41.00;;
40601;SDS011;26310;50.278;19.032;2022-11-20T08:54:09;93.20;;;40.93;;
40601;SDS011;26310;50.278;19.032;2022-11-20T08:59:12;90.13;;;41.03;;
40601;SDS011;26310;50.278;19.032;2022-11-20T09:04:35;75.90;;;38.70;;
40601;SDS011;26310;50.278;19.032;2022-11-20T09:09:38;74.40;;;36.07;;
40601;SDS011;26310;50.278;19.032;2022-11-20T09:14:41;74.07;;;35.27;;
40601;SDS011;26310;50.278;19.032;2022-11-20T09:19:43;74.87;;;33.20;;
40601;SDS011;26310;50.278;19.032;2022-11-20T09:24:47;65.03;;;31.60;;
40601;SDS011;26310;50.278;19.032;2022-11-20T09:29:50;64.67;;;31.93;;
40601;SDS011;26310;50.278;19.032;2022-11-20T09:34:53;69.13;;;29.80;;
40601;SDS011;26310;50.278;19.032;2022-11-20T09:39:56;57.27;;;28.20;;
40601;SDS011;26310;50.278;19.032;2022-11-20T09:55:34;39.40;;;19.90;;
40601;SDS011;26310;50.278;19.032;2022-11-20T10:00:38;37.87;;;19.53;;
40601;SDS011;26310;50.278;19.032;2022-11-20T10:05:45;37.07;;;19.93;;
40601;SDS011;26310;50.278;19.032;2022-11-20T10:10:50;34.70;;;17.67;;
40601;SDS011;26310;50.278;19.032;2022-11-20T10:16:05;40.60;;;18.43;;
40601;SDS011;26310;50.278;19.032;2022-11-20T10:21:27;40.03;;;20.33;;
40601;SDS011;26310;50.278;19.032;2022-11-20T10:26:43;32.73;;;17.37;;
40601;SDS011;26310;50.278;19.032;2022-11-20T10:31:54;34.00;;;16.87;;
40601;SDS011;26310;50.278;19.032;2022-11-20T10:37:08;34.03;;;17.43;;
40601;SDS011;26310;50.278;19.032;2022-11-20T10:42:23;36.67;;;17.13;;
40601;SDS011;26310;50.278;19.032;2022-11-20T10:47:33;36.60;;;17.37;;
40601;SDS011;26310;50.278;19.032;2022-11-20T11:08:26;36.20;;;14.53;;
40601;SDS011;26310;50.278;19.032;2022-11-20T11:13:34;31.60;;;16.33;;
40601;SDS011;26310;50.278;19.032;2022-11-20T11:18:36;36.10;;;17.17;;
40601;SDS011;26310;50.278;19.032;2022-11-20T11:23:40;34.77;;;16.30;;
40601;SDS011;26310;50.278;19.032;2022-11-20T11:28:52;34.33;;;16.27;;
40601;SDS011;26310;50.278;19.032;2022-11-20T11:34:05;35.23;;;15.90;;
40601;SDS011;26310;50.278;19.032;2022-11-20T11:39:14;29.43;;;14.03;;
40601;SDS011;26310;50.278;19.032;2022-11-20T11:44:24;37.17;;;16.73;;
40601;SDS011;26310;50.278;19.032;2022-11-20T12:00:37;42.50;;;20.47;;
40601;SDS011;26310;50.278;19.032;2022-11-20T12:05:44;41.90;;;20.73;;
40601;SDS011;26310;50.278;19.032;2022-11-20T12:15:57;39.67;;;18.47;;
40601;SDS011;26310;50.278;19.032;2022-11-20T12:26:33;42.53;;;20.03;;
40601;SDS011;26310;50.278;19.032;2022-11-20T12:31:55;46.07;;;22.57;;
40601;SDS011;26310;50.278;19.032;2022-11-20T12:37:21;45.00;;;22.27;;
40601;SDS011;26310;50.278;19.032;2022-11-20T12:42:40;44.47;;;22.57;;
40601;SDS011;26310;50.278;19.032;2022-11-20T12:48:17;33.63;;;18.93;;
40601;SDS011;26310;50.278;19.032;2022-11-20T12:59:07;43.10;;;20.73;;
40601;SDS011;26310;50.278;19.032;2022-11-20T13:09:57;35.80;;;19.07;;
40601;SDS011;26310;50.278;19.032;2022-11-20T13:20:25;43.73;;;21.63;;
40601;SDS011;26310;50.278;19.032;2022-11-20T13:25:29;43.57;;;20.50;;
40601;SDS011;26310;50.278;19.032;2022-11-20T13:30:48;45.93;;;22.57;;
40601;SDS011;26310;50.278;19.032;2022-11-20T13:41:53;42.60;;;22.47;;
40601;SDS011;26310;50.278;19.032;2022-11-20T13:47:20;41.10;;;20.53;;
40601;SDS011;26310;50.278;19.032;2022-11-20T14:03:53;44.87;;;24.70;;
40601;SDS011;26310;50.278;19.032;2022-11-20T14:09:12;50.07;;;25.70;;
40601;SDS011;26310;50.278;19.032;2022-11-20T14:14:51;49.43;;;26.20;;
40601;SDS011;26310;50.278;19.032;2022-11-20T14:20:17;55.80;;;26.77;;
40601;SDS011;26310;50.278;19.032;2022-11-20T14:25:29;64.73;;;28.50;;
40601;SDS011;26310;50.278;19.032;2022-11-20T14:30:38;63.30;;;31.23;;
40601;SDS011;26310;50.278;19.032;2022-11-20T14:36:15;50.87;;;27.07;;
40601;SDS011;26310;50.278;19.032;2022-11-20T14:41:34;57.07;;;30.97;;
40601;SDS011;26310;50.278;19.032;2022-11-20T14:46:52;66.10;;;30.90;;
40601;SDS011;26310;50.278;19.032;2022-11-20T14:52:13;63.77;;;30.43;;
40601;SDS011;26310;50.278;19.032;2022-11-20T14:57:31;62.93;;;29.20;;
40601;SDS011;26310;50.278;19.032;2022-11-20T15:02:39;59.73;;;30.97;;
40601;SDS011;26310;50.278;19.032;2022-11-20T15:07:48;54.77;;;27.77;;
40601;SDS011;26310;50.278;19.032;2022-11-20T15:13:15;67.30;;;30.50;;
40601;SDS011;26310;50.278;19.032;2022-11-20T15:23:39;61.63;;;28.30;;
40601;SDS011;26310;50.278;19.032;2022-11-20T15:28:49;58.27;;;27.10;;
40601;SDS011;26310;50.278;19.032;2022-11-20T15:34:19;58.40;;;28.60;;
40601;SDS011;26310;50.278;19.032;2022-11-20T15:39:22;53.83;;;27.27;;
40601;SDS011;26310;50.278;19.032;2022-11-20T15:44:25;67.23;;;28.10;;
40601;SDS011;26310;50.278;19.032;2022-11-20T15:49:31;58.53;;;30.47;;
40601;SDS011;26310;50.278;19.032;2022-11-20T15:54:33;63.07;;;33.13;;
40601;SDS011;26310;50.278;19.032;2022-11-20T15:59:36;67.23;;;31.63;;
40601;SDS011;26310;50.278;19.032;2022-11-20T16:04:44;56.40;;;31.80;;
40601;SDS011;26310;50.278;19.032;2022-11-20T16:09:51;63.90;;;29.03;;
40601;SDS011;26310;50.278;19.032;2022-11-20T16:14:59;68.03;;;30.07;;
40601;SDS011;26310;50.278;19.032;2022-11-20T16:20:32;59.47;;;28.10;;
40601;SDS011;26310;50.278;19.032;2022-11-20T16:25:41;54.70;;;27.87;;
40601;SDS011;26310;50.278;19.032;2022-11-20T16:30:52;63.50;;;29.10;;
40601;SDS011;26310;50.278;19.032;2022-11-20T16:36:14;60.87;;;28.57;;
40601;SDS011;26310;50.278;19.032;2022-11-20T16:41:26;55.50;;;28.33;;
40601;SDS011;26310;50.278;19.032;2022-11-20T16:46:54;69.40;;;30.53;;
40601;SDS011;26310;50.278;19.032;2022-11-20T16:51:59;73.50;;;30.83;;
40601;SDS011;26310;50.278;19.032;2022-11-20T16:57:06;76.70;;;33.73;;
40601;SDS011;26310;50.278;19.032;2022-11-20T17:02:09;68.47;;;31.00;;
40601;SDS011;26310;50.278;19.032;2022-11-20T17:07:18;64.60;;;31.43;;
40601;SDS011;26310;50.278;19.032;2022-11-20T17:12:21;57.00;;;30.13;;
40601;SDS011;26310;50.278;19.032;2022-11-20T17:17:29;72.13;;;30.23;;
40601;SDS011;26310;50.278;19.032;2022-11-20T17:22:36;61.23;;;28.67;;
40601;SDS011;26310;50.278;19.032;2022-11-20T17:27:49;67.33;;;28.50;;
40601;SDS011;26310;50.278;19.032;2022-11-20T17:32:53;62.57;;;27.50;;
40601;SDS011;26310;50.278;19.032;2022-11-20T17:37:57;48.13;;;23.67;;
40601;SDS011;26310;50.278;19.032;2022-11-20T17:43:00;55.00;;;22.27;;
40601;SDS011;26310;50.278;19.032;2022-11-20T17:48:07;56.20;;;23.20;;
40601;SDS011;26310;50.278;19.032;2022-11-20T17:53:31;47.30;;;22.03;;
40601;SDS011;26310;50.278;19.032;2022-11-20T17:58:43;47.57;;;21.17;;
40601;SDS011;26310;50.278;19.032;2022-11-20T18:03:55;41.97;;;20.63;;
40601;SDS011;26310;50.278;19.032;2022-11-20T18:09:08;46.93;;;20.00;;
40601;SDS011;26310;50.278;19.032;2022-11-20T18:14:17;44.60;;;21.57;;
40601;SDS011;26310;50.278;19.032;2022-11-20T18:19:59;53.07;;;23.77;;
40601;SDS011;26310;50.278;19.032;2022-11-20T18:25:42;53.03;;;21.90;;
40601;SDS011;26310;50.278;19.032;2022-11-20T18:30:48;45.10;;;22.10;;
40601;SDS011;26310;50.278;19.032;2022-11-20T18:35:54;47.83;;;22.80;;
40601;SDS011;26310;50.278;19.032;2022-11-20T18:41:02;48.10;;;21.63;;
40601;SDS011;26310;50.278;19.032;2022-11-20T18:46:06;39.80;;;20.50;;
40601;SDS011;26310;50.278;19.032;2022-11-20T18:51:13;42.53;;;20.23;;
40601;SDS011;26310;50.278;19.032;2022-11-20T18:56:27;42.27;;;18.50;;
40601;SDS011;26310;50.278;19.032;2022-11-20T19:01:42;37.20;;;16.80;;
40601;SDS011;26310;50.278;19.032;2022-11-20T19:06:49;36.20;;;16.00;;
40601;SDS011;26310;50.278;19.032;2022-11-20T19:12:03;31.60;;;14.23;;
40601;SDS011;26310;50.278;19.032;2022-11-20T19:17:07;42.07;;;16.23;;
40601;SDS011;26310;50.278;19.032;2022-11-20T19:22:12;34.70;;;15.07;;
40601;SDS011;26310;50.278;19.032;2022-11-20T19:27:15;36.00;;;16.37;;
40601;SDS011;26310;50.278;19.032;2022-11-20T19:32:18;29.37;;;14.77;;
40601;SDS011;26310;50.278;19.032;2022-11-20T19:37:22;31.60;;;14.80;;
40601;SDS011;26310;50.278;19.032;2022-11-20T19:42:28;29.13;;;14.17;;
40601;SDS011;26310;50.278;19.032;2022-11-20T19:47:32;31.10;;;14.80;;
40601;SDS011;26310;50.278;19.032;2022-11-20T19:52:55;30.57;;;16.10;;
40601;SDS011;26310;50.278;19.032;2022-11-20T19:58:00;28.50;;;15.50;;
40601;SDS011;26310;50.278;19.032;2022-11-20T20:03:08;35.27;;;16.43;;
40601;SDS011;26310;50.278;19.032;2022-11-20T20:08:17;33.53;;;16.13;;
40601;SDS011;26310;50.278;19.032;2022-11-20T20:13:25;35.00;;;16.23;;
40601;SDS011;26310;50.278;19.032;2022-11-20T20:18:28;33.83;;;16.40;;
40601;SDS011;26310;50.278;19.032;2022-11-20T20:23:32;36.00;;;17.10;;
40601;SDS011;26310;50.278;19.032;2022-11-20T20:28:39;33.57;;;15.73;;
40601;SDS011;26310;50.278;19.032;2022-11-20T20:33:45;33.57;;;16.27;;
40601;SDS011;26310;50.278;19.032;2022-11-20T20:38:52;39.83;;;17.30;;
40601;SDS011;26310;50.278;19.032;2022-11-20T20:43:56;36.97;;;17.17;;
40601;SDS011;26310;50.278;19.032;2022-11-20T20:49:17;35.73;;;18.00;;
40601;SDS011;26310;50.278;19.032;2022-11-20T20:54:26;40.20;;;17.00;;
40601;SDS011;26310;50.278;19.032;2022-11-20T20:59:36;41.80;;;19.03;;
40601;SDS011;26310;50.278;19.032;2022-11-20T21:04:40;42.33;;;18.67;;
40601;SDS011;26310;50.278;19.032;2022-11-20T21:09:43;45.10;;;19.90;;
40601;SDS011;26310;50.278;19.032;2022-11-20T21:14:50;41.20;;;18.67;;
40601;SDS011;26310;50.278;19.032;2022-11-20T21:19:55;39.87;;;18.97;;
40601;SDS011;26310;50.278;19.032;2022-11-20T21:24:58;42.23;;;19.00;;
40601;SDS011;26310;50.278;19.032;2022-11-20T21:30:01;41.83;;;19.00;;
40601;SDS011;26310;50.278;19.032;2022-11-20T21:35:05;38.47;;;16.63;;
40601;SDS011;26310;50.278;19.032;2022-11-20T21:40:08;33.53;;;17.37;;
40601;SDS011;26310;50.278;19.032;2022-11-20T21:45:15;40.20;;;17.30;;
40601;SDS011;26310;50.278;19.032;2022-11-20T21:50:18;32.63;;;17.60;;
40601;SDS011;26310;50.278;19.032;2022-11-20T21:55:21;43.97;;;20.57;;
40601;SDS011;26310;50.278;19.032;2022-11-20T22:00:25;43.27;;;19.47;;
40601;SDS011;26310;50.278;19.032;2022-11-20T22:05:28;50.63;;;21.60;;
40601;SDS011;26310;50.278;19.032;2022-11-20T22:10:35;39.10;;;18.67;;
40601;SDS011;26310;50.278;19.032;2022-11-20T22:15:38;42.17;;;20.97;;
40601;SDS011;26310;50.278;19.032;2022-11-20T22:21:05;42.37;;;20.37;;
40601;SDS011;26310;50.278;19.032;2022-11-20T22:26:17;45.53;;;20.87;;
40601;SDS011;26310;50.278;19.032;2022-11-20T22:31:22;46.63;;;21.40;;
40601;SDS011;26310;50.278;19.032;2022-11-20T22:36:30;49.17;;;21.87;;
40601;SDS011;26310;50.278;19.032;2022-11-20T22:41:33;45.50;;;22.33;;
40601;SDS011;26310;50.278;19.032;2022-11-20T22:46:39;47.37;;;22.80;;
40601;SDS011;26310;50.278;19.032;2022-11-20T22:51:44;50.20;;;23.20;;
40601;SDS011;26310;50.278;19.032;2022-11-20T22:56:47;52.17;;;23.50;;
40601;SDS011;26310;50.278;19.032;2022-11-20T23:01:52;58.50;;;21.20;;
40601;SDS011;26310;50.278;19.032;2022-11-20T23:06:55;49.00;;;22.53;;
40601;SDS011;26310;50.278;19.032;2022-11-20T23:11:58;46.07;;;20.70;;
40601;SDS011;26310;50.278;19.032;2022-11-20T23:17:01;45.20;;;20.37;;
40601;SDS011;26310;50.278;19.032;2022-11-20T23:22:04;37.67;;;18.13;;
40601;SDS011;26310;50.278;19.032;2022-11-20T23:27:07;37.47;;;19.33;;
40601;SDS011;26310;50.278;19.032;2022-11-20T23:32:10;43.70;;;19.80;;
40601;SDS011;26310;50.278;19.032;2022-11-20T23:37:14;40.67;;;18.20;;
40601;SDS011;26310;50.278;19.032;2022-11-20T23:42:17;41.00;;;19.53;;
40601;SDS011;26310;50.278;19.032;2022-11-20T23:47:22;37.87;;;18.53;;
40601;SDS011;26310;50.278;19.032;2022-11-20T23:52:25;42.67;;;18.40;;
40601;SDS011;26310;50.278;19.032;2022-11-20T23:57:28;34.80;;;17.03;;
